Time;durP1;ratioP1;P1;durP2;ratioP2;P2;SDS_P1;SDS_P2;PMS_P1;PMS_P2;Temp;Humidity;BMP_temperature;BMP_pressure;BME280_temperature;BME280_humidity;BME280_pressure;Samples;Min_cycle;Max_cycle;Signal;HPM_P1;HPM_P2
2021/08/25 00:01:06;;;;;;;16.23;9.80;;;538.20;2406.40;;;;;;5093259;28;20103;-77
2021/08/25 00:03:32;;;;;;;16.20;11.05;;;538.30;2406.40;;;;;;5094406;28;20033;-79
2021/08/25 00:05:58;;;;;;;16.48;9.48;;;538.30;2406.40;;;;;;5086003;28;20081;-76
2021/08/25 00:08:24;;;;;;;17.23;9.73;;;538.20;2406.40;;;;;;5073809;28;20021;-76
2021/08/25 00:10:49;;;;;;;16.05;10.15;;;538.30;2406.40;;;;;;5073968;28;20433;-76
2021/08/25 00:13:15;;;;;;;16.77;10.57;;;538.30;2406.40;;;;;;5071968;28;20040;-80
2021/08/25 00:15:42;;;;;;;18.13;10.25;;;538.30;2406.40;;;;;;5074209;28;20052;-75
2021/08/25 00:18:08;;;;;;;16.55;9.65;;;538.40;2406.40;;;;;;5073999;28;20033;-76
2021/08/25 00:20:35;;;;;;;15.50;10.02;;;538.40;2406.40;;;;;;5073992;28;20526;-76
2021/08/25 00:23:01;;;;;;;16.33;9.25;;;538.40;2406.40;;;;;;5073707;28;20041;-75
2021/08/25 00:25:27;;;;;;;15.63;9.27;;;538.50;2406.40;;;;;;5077474;28;20107;-76
2021/08/25 00:27:54;;;;;;;16.35;10.40;;;538.40;2406.40;;;;;;5094061;28;20069;-76
2021/08/25 00:30:20;;;;;;;15.52;9.15;;;538.40;2406.40;;;;;;5093595;28;20020;-75
2021/08/25 00:32:46;;;;;;;15.75;8.98;;;538.40;2406.40;;;;;;5094032;28;20032;-76
2021/08/25 00:35:12;;;;;;;17.20;10.60;;;538.50;2406.40;;;;;;5093884;28;20145;-76
2021/08/25 00:37:38;;;;;;;14.73;9.07;;;538.50;2406.40;;;;;;5075349;28;20443;-75
2021/08/25 00:40:05;;;;;;;17.70;8.65;;;538.50;2406.40;;;;;;5093622;28;20020;-76
2021/08/25 00:42:31;;;;;;;12.70;8.30;;;538.50;2406.40;;;;;;5093686;28;20052;-76
2021/08/25 00:45:02;;;;;;;13.25;8.85;;;538.50;2406.40;;;;;;5093760;28;20424;-77
2021/08/25 00:47:36;;;;;;;17.05;9.55;;;538.50;2406.40;;;;;;5093779;28;20077;-75
2021/08/25 00:50:03;;;;;;;13.55;7.88;;;538.40;2406.40;;;;;;5093986;28;20107;-77
2021/08/25 00:52:29;;;;;;;16.65;9.70;;;538.40;2406.40;;;;;;5095621;28;20028;-78
2021/08/25 00:54:55;;;;;;;15.65;8.63;;;538.40;2406.40;;;;;;5095793;28;20031;-78
2021/08/25 00:57:21;;;;;;;13.55;7.95;;;538.40;2406.40;;;;;;5094370;28;20032;-76
2021/08/25 00:59:47;;;;;;;12.50;8.50;;;538.40;2406.40;;;;;;5093499;28;20028;-77
2021/08/25 01:02:20;;;;;;;18.25;10.52;;;538.40;2406.40;;;;;;5093395;28;20020;-77
2021/08/25 01:04:53;;;;;;;17.00;10.20;;;538.30;2406.40;;;;;;5093553;28;20031;-76
2021/08/25 01:07:22;;;;;;;15.02;9.50;;;538.30;2406.40;;;;;;5093644;28;20020;-78
2021/08/25 01:09:49;;;;;;;18.38;10.27;;;538.20;2406.40;;;;;;5079927;28;20086;-77
2021/08/25 01:12:15;;;;;;;20.38;12.27;;;538.10;2406.40;;;;;;5073562;28;20098;-76
2021/08/25 01:14:41;;;;;;;22.05;12.80;;;538.00;2406.40;;;;;;5073234;28;20482;-77
2021/08/25 01:17:09;;;;;;;21.73;13.63;;;537.90;2406.40;;;;;;5073404;28;20134;-77
2021/08/25 01:19:47;;;;;;;20.42;11.75;;;537.80;2406.40;;;;;;5073401;28;20575;-75
2021/08/25 01:22:15;;;;;;;21.63;11.82;;;537.70;2406.40;;;;;;5073273;28;20021;-74
2021/08/25 01:24:41;;;;;;;18.55;11.10;;;537.70;2406.40;;;;;;5072841;28;20031;-75
2021/08/25 01:27:08;;;;;;;17.45;10.95;;;537.80;2406.40;;;;;;5073200;28;20020;-76
2021/08/25 01:29:34;;;;;;;25.20;11.52;;;537.90;2406.40;;;;;;5073030;28;20381;-75
2021/08/25 01:32:00;;;;;;;18.48;10.43;;;537.90;2406.40;;;;;;5073206;28;20016;-78
2021/08/25 01:34:26;;;;;;;14.15;9.60;;;537.90;2406.40;;;;;;5073230;28;20539;-78
2021/08/25 01:36:53;;;;;;;19.05;11.80;;;537.90;2406.40;;;;;;5072852;28;20029;-78
2021/08/25 01:39:20;;;;;;;19.58;11.13;;;538.00;2406.40;;;;;;5072746;28;20490;-77
2021/08/25 01:41:47;;;;;;;17.02;10.07;;;538.00;2406.40;;;;;;5073915;28;20028;-78
2021/08/25 01:44:13;;;;;;;18.92;10.25;;;538.00;2406.40;;;;;;5076809;28;20016;-79
2021/08/25 01:46:41;;;;;;;20.20;10.70;;;538.00;2406.40;;;;;;5076839;28;20029;-75
2021/08/25 01:49:08;;;;;;;16.38;9.65;;;538.10;2406.40;;;;;;5077517;28;20459;-75
2021/08/25 01:51:35;;;;;;;16.05;9.45;;;538.10;2406.40;;;;;;5077058;28;20044;-76
2021/08/25 01:54:02;;;;;;;17.75;9.10;;;538.10;2406.40;;;;;;5076492;28;20040;-75
2021/08/25 01:56:27;;;;;;;18.35;10.20;;;538.10;2406.40;;;;;;5077282;28;20112;-75
2021/08/25 01:58:53;;;;;;;15.57;10.05;;;538.10;2406.40;;;;;;5076826;28;20108;-76
2021/08/25 02:01:19;;;;;;;18.33;11.00;;;538.10;2406.40;;;;;;5077081;28;20013;-76
2021/08/25 02:03:45;;;;;;;18.98;10.13;;;538.10;2406.40;;;;;;5076778;28;20024;-77
2021/08/25 02:06:11;;;;;;;15.52;10.05;;;538.10;2406.40;;;;;;5077139;28;20111;-76
2021/08/25 02:08:37;;;;;;;17.90;11.77;;;538.20;2406.40;;;;;;5058600;28;20035;-76
2021/08/25 02:11:03;;;;;;;18.45;10.35;;;538.20;2406.40;;;;;;5076518;28;20436;-76
2021/08/25 02:13:28;;;;;;;17.30;9.88;;;538.20;2406.40;;;;;;5076487;28;20078;-75
2021/08/25 02:15:54;;;;;;;16.50;11.15;;;538.20;2406.40;;;;;;5076519;28;20020;-76
2021/08/25 02:18:20;;;;;;;19.65;11.35;;;538.20;2406.40;;;;;;5076877;28;20025;-75
2021/08/25 02:20:46;;;;;;;19.77;10.88;;;538.30;2406.40;;;;;;5076748;28;20035;-78
2021/08/25 02:23:12;;;;;;;20.15;11.90;;;538.10;2406.40;;;;;;5076082;28;20029;-76
2021/08/25 02:25:38;;;;;;;19.05;11.52;;;538.00;2406.40;;;;;;5076360;28;20020;-76
2021/08/25 02:28:05;;;;;;;19.35;10.80;;;538.00;2406.40;;;;;;5076352;28;20025;-78
2021/08/25 02:30:31;;;;;;;19.05;10.57;;;538.00;2406.40;;;;;;5076278;28;20048;-80
2021/08/25 02:32:57;;;;;;;19.27;9.80;;;538.00;2406.40;;;;;;5076192;28;20075;-77
2021/08/25 02:35:23;;;;;;;16.45;9.65;;;538.10;2406.40;;;;;;5076276;28;20025;-78
2021/08/25 02:37:48;;;;;;;14.43;10.27;;;538.10;2406.40;;;;;;5057622;28;20045;-79
2021/08/25 02:40:14;;;;;;;15.13;9.95;;;538.10;2406.40;;;;;;5075462;28;20078;-78
2021/08/25 02:42:40;;;;;;;11.15;7.18;;;538.10;2406.40;;;;;;5076170;28;20029;-75
2021/08/25 02:45:08;;;;;;;17.10;7.78;;;538.00;2406.40;;;;;;5075967;28;20020;-75
2021/08/25 02:47:34;;;;;;;13.05;8.02;;;537.90;2406.40;;;;;;5075907;28;20112;-75
2021/08/25 02:50:00;;;;;;;13.43;9.07;;;537.80;2406.40;;;;;;5076262;28;20100;-76
2021/08/25 02:52:25;;;;;;;14.02;7.68;;;537.70;2406.40;;;;;;5075689;28;20067;-76
2021/08/25 02:54:51;;;;;;;15.80;9.80;;;537.70;2406.40;;;;;;5075304;28;20056;-78
2021/08/25 02:57:17;;;;;;;18.25;9.85;;;537.60;2406.40;;;;;;5075472;28;20016;-80
2021/08/25 02:59:43;;;;;;;15.82;9.63;;;537.60;2406.40;;;;;;5075597;28;20419;-77
2021/08/25 03:02:09;;;;;;;14.73;8.25;;;512.90;2380.80;;;;;;5075648;28;20137;-78
2021/08/25 03:04:34;;;;;;;13.05;8.23;;;512.90;2380.80;;;;;;5075482;28;20032;-78
2021/08/25 03:07:00;;;;;;;10.90;6.80;;;512.90;2380.80;;;;;;5075320;28;20028;-78
2021/08/25 03:09:26;;;;;;;10.25;6.70;;;512.80;2380.80;;;;;;5075027;28;20056;-78
2021/08/25 03:11:52;;;;;;;10.57;6.00;;;512.80;2380.80;;;;;;5075103;28;20024;-78
2021/08/25 03:14:18;;;;;;;8.80;5.22;;;512.70;2380.80;;;;;;5074989;28;20150;-77
2021/08/25 03:16:43;;;;;;;11.57;6.22;;;512.80;2380.80;;;;;;5075176;28;20024;-77
2021/08/25 03:19:09;;;;;;;11.63;6.78;;;512.80;2380.80;;;;;;5075129;28;20047;-78
2021/08/25 03:21:35;;;;;;;7.20;5.13;;;512.80;2380.80;;;;;;5088910;28;20028;-77
2021/08/25 03:24:00;;;;;;;7.78;5.53;;;512.70;2380.80;;;;;;5083119;28;20089;-75
2021/08/25 03:26:26;;;;;;;9.80;5.28;;;512.70;2380.80;;;;;;5080561;28;20033;-75
2021/08/25 03:28:52;;;;;;;6.43;4.75;;;512.60;2380.80;;;;;;5085572;28;20028;-76
2021/08/25 03:31:18;;;;;;;10.50;5.38;;;512.60;2380.80;;;;;;5089168;28;20071;-76
2021/08/25 03:33:43;;;;;;;6.63;4.80;;;512.60;2380.80;;;;;;5075611;28;20124;-77
2021/08/25 03:36:09;;;;;;;7.93;5.38;;;512.60;2380.80;;;;;;5075116;28;20028;-76
2021/08/25 03:38:35;;;;;;;7.85;5.10;;;512.70;2380.80;;;;;;5074803;28;20514;-76
2021/08/25 03:41:01;;;;;;;8.75;5.50;;;512.70;2380.80;;;;;;5093153;28;20020;-78
2021/08/25 03:43:26;;;;;;;8.57;5.60;;;512.80;2380.80;;;;;;5094992;28;20381;-77
2021/08/25 03:45:52;;;;;;;7.20;4.55;;;512.80;2380.80;;;;;;5095036;28;20096;-77
2021/08/25 03:48:18;;;;;;;7.45;4.75;;;512.90;2380.80;;;;;;5095235;28;20024;-76
2021/08/25 03:50:43;;;;;;;7.43;5.07;;;512.90;2380.80;;;;;;5095209;28;20024;-76
2021/08/25 03:53:09;;;;;;;7.55;5.00;;;537.60;2406.40;;;;;;5094441;28;20489;-75
2021/08/25 03:55:35;;;;;;;9.30;5.22;;;537.60;2406.40;;;;;;5094824;28;20050;-76
2021/08/25 03:58:00;;;;;;;7.68;4.53;;;537.60;2406.40;;;;;;5094553;28;20042;-76
2021/08/25 04:00:26;;;;;;;10.93;6.32;;;537.60;2406.40;;;;;;5094440;28;20486;-75
2021/08/25 04:02:52;;;;;;;10.15;6.07;;;537.60;2406.40;;;;;;5093717;28;20035;-77
2021/08/25 04:05:17;;;;;;;10.27;6.22;;;537.60;2406.40;;;;;;5074455;28;20020;-77
2021/08/25 04:07:43;;;;;;;14.35;7.25;;;537.60;2406.40;;;;;;5074554;28;20028;-77
2021/08/25 04:10:09;;;;;;;10.05;6.68;;;537.60;2406.40;;;;;;5074356;28;20032;-78
2021/08/25 04:12:35;;;;;;;11.32;7.18;;;537.60;2406.40;;;;;;5074407;28;20051;-78
2021/08/25 04:15:03;;;;;;;11.57;6.32;;;512.80;2380.80;;;;;;5074353;28;20387;-78
2021/08/25 04:17:29;;;;;;;8.52;6.32;;;512.60;2380.80;;;;;;5094021;28;20031;-79
2021/08/25 04:19:55;;;;;;;9.27;6.90;;;512.50;2380.80;;;;;;5088940;28;20102;-80
2021/08/25 04:22:21;;;;;;;10.55;6.95;;;512.50;2380.80;;;;;;5094935;28;20028;-81
2021/08/25 04:24:47;;;;;;;9.07;6.50;;;512.60;2380.80;;;;;;5076367;28;20104;-77
2021/08/25 04:27:13;;;;;;;11.10;6.68;;;512.60;2380.80;;;;;;5094754;28;20367;-77
2021/08/25 04:29:38;;;;;;;11.55;7.40;;;512.60;2380.80;;;;;;5094976;28;20052;-77
2021/08/25 04:32:04;;;;;;;12.02;6.28;;;512.60;2380.80;;;;;;5093585;28;20036;-85
2021/08/25 04:34:30;;;;;;;12.77;7.00;;;512.70;2380.80;;;;;;5063549;28;20040;-77
2021/08/25 04:36:56;;;;;;;11.98;7.63;;;512.70;2380.80;;;;;;5074905;28;20024;-78
2021/08/25 04:39:23;;;;;;;11.52;7.05;;;512.70;2380.80;;;;;;5074527;28;20146;-80
2021/08/25 04:41:48;;;;;;;11.07;7.15;;;512.70;2380.80;;;;;;5074904;28;20021;-77
2021/08/25 04:44:14;;;;;;;11.93;7.65;;;512.80;2380.80;;;;;;5087782;28;20047;-78
2021/08/25 04:46:40;;;;;;;13.95;8.32;;;512.80;2380.80;;;;;;5060906;28;20496;-78
2021/08/25 04:49:06;;;;;;;15.65;9.63;;;512.80;2380.80;;;;;;5080128;28;20024;-79
2021/08/25 04:51:31;;;;;;;13.35;9.18;;;512.70;2380.80;;;;;;5059348;28;20505;-78
2021/08/25 04:53:57;;;;;;;17.98;10.50;;;512.60;2380.80;;;;;;5057697;28;20324;-79
2021/08/25 04:56:23;;;;;;;13.20;8.75;;;512.70;2380.80;;;;;;5056408;28;20492;-78
2021/08/25 04:58:48;;;;;;;16.48;8.88;;;512.70;2380.80;;;;;;5073061;28;20032;-80
2021/08/25 05:01:14;;;;;;;14.73;8.18;;;512.70;2380.80;;;;;;5056217;28;20074;-79
2021/08/25 05:03:40;;;;;;;18.88;9.43;;;512.70;2380.80;;;;;;5056473;28;20119;-79
2021/08/25 05:06:10;;;;;;;12.73;7.93;;;512.70;2380.80;;;;;;5056484;28;20471;-78
2021/08/25 05:08:36;;;;;;;14.45;8.32;;;512.70;2380.80;;;;;;5074288;28;20393;-78
2021/08/25 05:11:02;;;;;;;14.35;9.20;;;512.70;2380.80;;;;;;5074430;28;20474;-79
2021/08/25 05:13:28;;;;;;;12.68;8.55;;;512.80;2380.80;;;;;;5074350;28;20040;-78
2021/08/25 05:15:53;;;;;;;16.05;9.43;;;512.70;2380.80;;;;;;5056190;28;20020;-79
2021/08/25 05:18:19;;;;;;;16.42;10.35;;;512.70;2380.80;;;;;;5060058;28;20024;-78
2021/08/25 05:20:45;;;;;;;15.10;8.18;;;512.70;2380.80;;;;;;5076894;28;20033;-80
2021/08/25 05:23:10;;;;;;;16.13;9.50;;;512.70;2380.80;;;;;;5060352;28;20063;-81
2021/08/25 05:25:36;;;;;;;17.23;8.38;;;512.70;2380.80;;;;;;5084432;28;20432;-84
2021/08/25 05:28:02;;;;;;;13.95;8.75;;;512.70;2380.80;;;;;;5080311;28;20031;-85
2021/08/25 05:30:28;;;;;;;12.38;7.88;;;512.70;2380.80;;;;;;5082112;28;20095;-81
2021/08/25 05:32:54;;;;;;;14.00;7.97;;;512.60;2380.80;;;;;;5077977;28;20028;-81
2021/08/25 05:35:21;;;;;;;15.20;8.73;;;512.60;2380.80;;;;;;5059797;28;20028;-80
2021/08/25 05:37:48;;;;;;;16.83;7.47;;;512.60;2380.80;;;;;;5059448;28;20131;-84
2021/08/25 05:40:15;;;;;;;12.23;7.68;;;512.50;2380.80;;;;;;5080815;28;20051;-85
2021/08/25 05:42:45;;;;;;;12.80;7.55;;;512.40;2380.80;;;;;;5079531;28;20066;-79
2021/08/25 05:45:11;;;;;;;14.63;7.97;;;512.30;2380.80;;;;;;5079509;28;20028;-79
2021/08/25 05:47:38;;;;;;;14.98;8.48;;;512.30;2380.80;;;;;;5079253;28;20354;-79
2021/08/25 05:50:05;;;;;;;13.32;7.70;;;512.30;2380.80;;;;;;5078920;28;20038;-79
2021/08/25 05:52:31;;;;;;;14.07;8.52;;;512.40;2380.80;;;;;;5059559;28;20098;-78
2021/08/25 05:54:57;;;;;;;13.95;7.43;;;512.40;2380.80;;;;;;5076909;28;20029;-78
2021/08/25 05:57:23;;;;;;;14.98;8.70;;;512.40;2380.80;;;;;;5077229;28;20466;-79
2021/08/25 05:59:48;;;;;;;12.30;8.65;;;512.30;2380.80;;;;;;5059138;28;20032;-78
2021/08/25 06:02:14;;;;;;;14.77;7.95;;;512.30;2380.80;;;;;;5059356;28;20031;-78
2021/08/25 06:04:40;;;;;;;13.38;8.57;;;512.30;2380.80;;;;;;5077293;28;20017;-78
2021/08/25 06:07:09;;;;;;;12.65;8.13;;;512.30;2380.80;;;;;;5077513;28;20035;-78
2021/08/25 06:09:35;;;;;;;15.90;8.82;;;512.30;2380.80;;;;;;5076863;28;20070;-78
2021/08/25 06:12:02;;;;;;;10.70;6.68;;;512.30;2380.80;;;;;;5096318;28;20470;-78
2021/08/25 06:14:28;;;;;;;14.98;8.55;;;512.20;2380.80;;;;;;5078698;28;20036;-78
2021/08/25 06:16:54;;;;;;;11.82;7.88;;;512.20;2380.80;;;;;;5074987;28;20060;-78
2021/08/25 06:19:19;;;;;;;13.13;8.75;;;512.20;2380.80;;;;;;5080013;28;20029;-78
2021/08/25 06:21:46;;;;;;;14.70;7.40;;;512.20;2380.80;;;;;;5068799;28;20036;-77
2021/08/25 06:24:13;;;;;;;13.00;8.43;;;512.20;2380.80;;;;;;5077737;28;20032;-76
2021/08/25 06:26:40;;;;;;;11.52;6.93;;;512.20;2380.80;;;;;;5085117;28;20020;-79
2021/08/25 06:29:06;;;;;;;11.35;6.80;;;512.30;2380.80;;;;;;5083839;28;20557;-76
2021/08/25 06:31:35;;;;;;;14.40;7.40;;;512.30;2380.80;;;;;;5093908;28;20032;-78
2021/08/25 06:34:02;;;;;;;13.45;8.48;;;512.30;2380.80;;;;;;5078590;28;20036;-78
2021/08/25 06:36:28;;;;;;;14.20;9.30;;;512.20;2380.80;;;;;;5096727;28;20099;-77
2021/08/25 06:38:53;;;;;;;15.20;8.18;;;512.20;2380.80;;;;;;5077912;28;20083;-81
2021/08/25 06:41:19;;;;;;;14.85;8.77;;;512.20;2380.80;;;;;;5097077;28;20028;-78
2021/08/25 06:43:45;;;;;;;16.50;7.80;;;512.20;2380.80;;;;;;5096834;28;20399;-78
2021/08/25 06:46:11;;;;;;;15.93;9.25;;;512.20;2380.80;;;;;;5096982;28;20034;-78
2021/08/25 06:48:37;;;;;;;15.43;8.30;;;512.20;2380.80;;;;;;5097038;28;20040;-82
2021/08/25 06:51:02;;;;;;;12.82;7.55;;;512.20;2380.80;;;;;;5097115;28;20055;-80
2021/08/25 06:53:30;;;;;;;14.73;7.93;;;512.20;2380.80;;;;;;5096275;28;20100;-78
2021/08/25 06:55:55;;;;;;;11.30;6.70;;;512.30;2380.80;;;;;;5079141;28;20508;-76
2021/08/25 06:58:24;;;;;;;11.25;6.53;;;512.30;2380.80;;;;;;5078512;28;20032;-84
2021/08/25 07:00:50;;;;;;;9.13;6.25;;;512.40;2380.80;;;;;;5096610;28;20028;-78
2021/08/25 07:03:16;;;;;;;13.85;7.45;;;512.50;2380.80;;;;;;5096233;28;20023;-81
2021/08/25 07:05:42;;;;;;;10.07;6.95;;;512.40;2380.80;;;;;;5096255;28;20020;-77
2021/08/25 07:08:08;;;;;;;9.60;6.07;;;512.40;2380.80;;;;;;5096119;28;20473;-77
2021/08/25 07:10:33;;;;;;;11.15;6.82;;;512.50;2380.80;;;;;;5095183;28;20397;-77
2021/08/25 07:12:59;;;;;;;15.35;6.90;;;512.70;2380.80;;;;;;5086136;28;20028;-77
2021/08/25 07:15:25;;;;;;;13.43;7.30;;;512.70;2380.80;;;;;;5075198;28;20457;-77
2021/08/25 07:17:51;;;;;;;11.75;6.57;;;512.80;2380.80;;;;;;5074933;28;20024;-77
2021/08/25 07:20:17;;;;;;;9.80;7.55;;;512.80;2380.80;;;;;;5075996;28;20094;-76
2021/08/25 07:22:42;;;;;;;20.85;10.98;;;512.80;2380.80;;;;;;5075827;28;20028;-77
2021/08/25 07:25:09;;;;;;;13.98;9.48;;;512.70;2380.80;;;;;;5075396;28;20055;-76
2021/08/25 07:27:35;;;;;;;11.32;6.75;;;512.60;2380.80;;;;;;5075718;28;20020;-78
2021/08/25 07:30:02;;;;;;;11.73;7.35;;;512.70;2380.80;;;;;;5075053;28;20024;-78
2021/08/25 07:32:27;;;;;;;11.43;6.70;;;512.80;2380.80;;;;;;5075901;28;20029;-85
2021/08/25 07:34:53;;;;;;;12.20;8.52;;;512.90;2380.80;;;;;;5079449;28;20051;-78
2021/08/25 07:37:19;;;;;;;10.15;6.40;;;537.60;2406.40;;;;;;5085741;28;20043;-75
2021/08/25 07:39:45;;;;;;;14.13;7.20;;;537.70;2406.40;;;;;;5094170;28;20517;-76
2021/08/25 07:42:11;;;;;;;10.50;7.32;;;537.80;2406.40;;;;;;5095587;28;20020;-76
2021/08/25 07:44:36;;;;;;;8.55;6.43;;;537.70;2406.40;;;;;;5095061;28;20020;-75
2021/08/25 07:47:02;;;;;;;12.18;7.72;;;537.70;2406.40;;;;;;5095170;28;20020;-76
2021/08/25 07:49:30;;;;;;;13.25;8.07;;;512.90;2380.80;;;;;;5095474;28;20031;-76
2021/08/25 07:51:56;;;;;;;17.27;10.55;;;512.90;2380.80;;;;;;5096711;28;20054;-75
2021/08/25 07:54:22;;;;;;;15.23;9.27;;;512.90;2380.80;;;;;;5097721;28;20141;-74
2021/08/25 07:56:47;;;;;;;13.15;8.45;;;537.70;2406.40;;;;;;5097552;28;20035;-75
2021/08/25 07:59:13;;;;;;;11.02;7.60;;;537.80;2406.40;;;;;;5096749;28;20420;-76
2021/08/25 08:01:39;;;;;;;10.48;6.65;;;538.00;2406.40;;;;;;5095471;28;20042;-76
2021/08/25 08:04:05;;;;;;;8.88;6.03;;;538.10;2406.40;;;;;;5094566;28;20462;-87
2021/08/25 08:06:31;;;;;;;11.10;6.53;;;538.10;2406.40;;;;;;5095158;28;20028;-76
2021/08/25 08:08:58;;;;;;;8.23;5.90;;;538.20;2406.40;;;;;;5094901;28;20040;-82
2021/08/25 08:11:24;;;;;;;10.13;6.28;;;538.30;2406.40;;;;;;5095230;28;20060;-77
2021/08/25 08:13:50;;;;;;;12.40;7.47;;;538.20;2406.40;;;;;;5094820;28;20485;-84
2021/08/25 08:16:19;;;;;;;14.07;8.02;;;538.20;2406.40;;;;;;5094569;28;20020;-83
2021/08/25 08:18:59;;;;;;;12.35;7.90;;;538.10;2406.40;;;;;;5094690;28;20028;-79
2021/08/25 08:21:26;;;;;;;12.00;7.30;;;538.00;2406.40;;;;;;5077024;28;20027;-79
2021/08/25 08:23:52;;;;;;;8.48;6.30;;;537.80;2406.40;;;;;;5076694;28;20036;-85
2021/08/25 08:26:18;;;;;;;12.60;8.07;;;537.70;2406.40;;;;;;5095277;28;20031;-81
2021/08/25 08:28:44;;;;;;;12.13;7.72;;;537.70;2406.40;;;;;;5094589;28;20024;-81
2021/08/25 08:31:10;;;;;;;14.35;7.95;;;537.70;2406.40;;;;;;5094704;28;20039;-81
2021/08/25 08:33:37;;;;;;;11.40;7.38;;;537.60;2406.40;;;;;;5077043;28;20097;-85
2021/08/25 08:36:04;;;;;;;12.32;8.85;;;537.80;2406.40;;;;;;5077238;28;20469;-82
2021/08/25 08:38:31;;;;;;;13.10;8.35;;;537.70;2406.40;;;;;;5077150;28;20462;-82
2021/08/25 08:40:56;;;;;;;10.82;7.97;;;537.70;2406.40;;;;;;5077229;28;20028;-81
2021/08/25 08:43:22;;;;;;;9.25;6.18;;;537.60;2406.40;;;;;;5095040;28;20488;-77
2021/08/25 08:45:49;;;;;;;10.23;6.63;;;512.70;2380.80;;;;;;5078124;28;20522;-78
2021/08/25 08:48:16;;;;;;;10.02;7.18;;;512.60;2380.80;;;;;;5098246;28;20022;-77
2021/08/25 08:50:46;;;;;;;11.68;7.72;;;512.60;2380.80;;;;;;5077734;28;20028;-78
2021/08/25 08:53:13;;;;;;;12.10;7.53;;;512.60;2380.80;;;;;;5094020;28;20055;-78
2021/08/25 08:55:41;;;;;;;10.07;7.03;;;512.60;2380.80;;;;;;5094312;28;20133;-80
2021/08/25 08:58:06;;;;;;;9.45;5.72;;;512.50;2380.80;;;;;;5093147;28;20034;-77
2021/08/25 09:00:33;;;;;;;6.20;3.83;;;512.60;2380.80;;;;;;5081365;28;20032;-81
2021/08/25 09:02:59;;;;;;;7.57;4.97;;;512.60;2380.80;;;;;;5082192;28;20481;-79
2021/08/25 09:05:34;;;;;;;6.35;4.43;;;512.50;2380.80;;;;;;5065329;28;20063;-79
2021/08/25 09:08:07;;;;;;;6.38;4.78;;;512.50;2380.80;;;;;;5076267;28;20028;-81
2021/08/25 09:10:41;;;;;;;6.00;4.15;;;512.60;2380.80;;;;;;5094336;28;20031;-79
2021/08/25 09:13:11;;;;;;;4.65;2.90;;;512.60;2380.80;;;;;;5067004;28;20040;-81
2021/08/25 09:15:40;;;;;;;3.88;2.47;;;512.50;2380.80;;;;;;5077489;28;20025;-81
2021/08/25 09:18:14;;;;;;;4.05;3.08;;;512.40;2380.80;;;;;;5093664;28;20020;-83
2021/08/25 09:20:49;;;;;;;3.33;2.20;;;512.50;2380.80;;;;;;5094223;28;20410;-80
2021/08/25 09:23:19;;;;;;;5.20;3.30;;;512.60;2380.80;;;;;;5093651;28;20025;-84
2021/08/25 09:25:47;;;;;;;5.32;3.33;;;512.60;2380.80;;;;;;5075782;28;20012;-80
2021/08/25 09:28:16;;;;;;;3.58;2.58;;;512.60;2380.80;;;;;;5075476;28;20028;-78
2021/08/25 09:30:56;;;;;;;2.75;1.60;;;512.50;2380.80;;;;;;5093464;28;20030;-78
2021/08/25 09:33:26;;;;;;;2.40;1.67;;;512.60;2380.80;;;;;;5075057;28;20063;-78
2021/08/25 09:35:55;;;;;;;1.83;1.38;;;512.50;2380.80;;;;;;5093588;28;20119;-78
2021/08/25 09:38:22;;;;;;;2.47;1.55;;;512.50;2380.80;;;;;;5093270;28;20494;-77
2021/08/25 09:40:51;;;;;;;3.30;2.25;;;512.60;2380.80;;;;;;5093969;28;20023;-78
2021/08/25 09:43:30;;;;;;;5.25;3.47;;;512.60;2380.80;;;;;;5093985;28;20028;-80
2021/08/25 09:46:10;;;;;;;2.63;1.65;;;512.50;2380.80;;;;;;5070237;28;20483;-78
2021/08/25 09:48:37;;;;;;;2.78;2.30;;;512.60;2380.80;;;;;;5086237;28;20125;-80
2021/08/25 09:51:04;;;;;;;4.28;1.80;;;512.60;2380.80;;;;;;5075963;28;20111;-82
2021/08/25 09:53:30;;;;;;;3.20;1.77;;;512.70;2380.80;;;;;;5076026;28;20052;-82
2021/08/25 09:55:58;;;;;;;2.63;1.40;;;512.70;2380.80;;;;;;5095412;28;20078;-86
2021/08/25 09:58:25;;;;;;;2.05;1.40;;;512.80;2380.80;;;;;;5094562;28;20031;-85
2021/08/25 10:00:56;;;;;;;3.35;2.00;;;512.90;2380.80;;;;;;5094956;28;20027;-83
2021/08/25 10:03:22;;;;;;;2.42;1.67;;;512.70;2380.80;;;;;;5096289;28;20024;-79
2021/08/25 10:05:48;;;;;;;4.35;1.55;;;512.70;2380.80;;;;;;5097817;28;20374;-78
2021/08/25 10:08:15;;;;;;;3.50;2.00;;;512.80;2380.80;;;;;;5097466;28;20024;-81
2021/08/25 10:10:42;;;;;;;4.15;1.63;;;512.80;2380.80;;;;;;5079133;28;20028;-78
2021/08/25 10:13:08;;;;;;;2.13;1.50;;;512.70;2380.80;;;;;;5097530;28;20055;-79
2021/08/25 10:15:35;;;;;;;5.03;2.28;;;512.60;2380.80;;;;;;5079319;28;20485;-82
2021/08/25 10:18:19;;;;;;;2.58;1.70;;;512.60;2380.80;;;;;;5097375;28;20046;-77
2021/08/25 10:20:45;;;;;;;2.63;1.95;;;512.50;2380.80;;;;;;5097764;28;20020;-77
2021/08/25 10:23:12;;;;;;;3.72;2.35;;;512.50;2380.80;;;;;;5097450;28;20039;-83
2021/08/25 10:26:04;;;;;;;3.42;1.95;;;512.50;2380.80;;;;;;5067974;28;20021;-79
2021/08/25 10:28:59;;;;;;;2.80;1.85;;;512.50;2380.80;;;;;;5090257;28;20024;-80
2021/08/25 10:31:49;;;;;;;2.88;2.10;;;512.70;2380.80;;;;;;5068459;28;20138;-83
2021/08/25 10:34:17;;;;;;;2.65;2.10;;;512.80;2380.80;;;;;;5064219;28;20033;-79
2021/08/25 10:36:43;;;;;;;2.35;1.70;;;512.90;2380.80;;;;;;5065130;28;20051;-82
2021/08/25 10:39:35;;;;;;;2.80;2.10;;;512.70;2380.80;;;;;;5049781;28;20511;-84
2021/08/25 10:42:02;;;;;;;3.28;2.15;;;512.70;2380.80;;;;;;5087267;28;20378;-81
2021/08/25 10:44:54;;;;;;;3.22;2.45;;;512.70;2380.80;;;;;;5067171;28;20027;-83
2021/08/25 10:47:59;;;;;;;5.43;2.47;;;512.90;2380.80;;;;;;5082424;28;20395;-78
2021/08/25 10:50:46;;;;;;;3.28;2.10;;;537.60;2406.40;;;;;;5091171;28;20025;-80
2021/08/25 10:53:32;;;;;;;4.60;2.90;;;537.60;2406.40;;;;;;5080555;28;20044;-84
2021/08/25 10:56:27;;;;;;;4.40;2.88;;;537.60;2406.40;;;;;;5063055;28;20036;-82
2021/08/25 10:58:56;;;;;;;3.83;2.35;;;537.60;2406.40;;;;;;5080994;28;20025;-82
2021/08/25 11:01:38;;;;;;;3.90;2.45;;;537.70;2406.40;;;;;;5081468;28;20063;-83
2021/08/25 11:04:15;;;;;;;2.95;2.33;;;537.90;2406.40;;;;;;5077115;28;20482;-77
2021/08/25 11:06:51;;;;;;;3.35;2.38;;;537.70;2406.40;;;;;;5058622;28;20036;-84
2021/08/25 11:09:27;;;;;;;3.58;2.60;;;537.70;2406.40;;;;;;5060304;28;20087;-79
2021/08/25 11:11:58;;;;;;;3.28;2.28;;;537.60;2406.40;;;;;;5082712;28;20070;-81
2021/08/25 11:14:30;;;;;;;3.08;1.98;;;537.60;2406.40;;;;;;5070949;28;20041;-81
2021/08/25 11:17:02;;;;;;;1.20;1.10;;;537.60;2406.40;;;;;;5092245;28;20020;-85
2021/08/25 11:19:34;;;;;;;1.80;1.10;;;512.90;2380.80;;;;;;5095938;28;20032;-82
2021/08/25 11:22:00;;;;;;;1.55;1.13;;;537.60;2406.40;;;;;;5058257;28;20052;-85
2021/08/25 11:24:48;;;;;;;1.98;0.98;;;512.90;2380.80;;;;;;5057560;28;20028;-83
2021/08/25 11:27:47;;;;;;;1.00;0.90;;;512.90;2380.80;;;;;;5075918;28;20103;-83
2021/08/25 11:30:24;;;;;;;1.60;1.15;;;512.90;2380.80;;;;;;4959559;28;20030;-85
2021/08/25 11:32:59;;;;;;;3.15;1.60;;;537.60;2406.40;;;;;;4975822;28;20042;-83
2021/08/25 11:35:36;;;;;;;2.33;2.00;;;537.60;2406.40;;;;;;4959581;28;20043;-83
2021/08/25 11:38:07;;;;;;;1.85;1.20;;;537.70;2406.40;;;;;;4959587;28;20066;-85
2021/08/25 11:40:37;;;;;;;2.17;1.67;;;537.60;2406.40;;;;;;4958780;28;20045;-78
2021/08/25 11:43:13;;;;;;;3.55;1.83;;;537.60;2406.40;;;;;;4975203;28;20045;-78
2021/08/25 11:45:41;;;;;;;2.63;1.60;;;537.70;2406.40;;;;;;4976283;28;20034;-78
2021/08/25 11:48:08;;;;;;;2.28;1.50;;;537.70;2406.40;;;;;;4975213;28;20031;-80
2021/08/25 11:50:36;;;;;;;2.20;1.33;;;537.70;2406.40;;;;;;4974421;28;20031;-85
2021/08/25 11:53:02;;;;;;;1.92;1.40;;;537.90;2406.40;;;;;;4958413;28;20125;-80
2021/08/25 11:55:34;;;;;;;2.80;1.55;;;538.00;2406.40;;;;;;4974776;28;20066;-79
2021/08/25 11:58:00;;;;;;;2.47;1.92;;;538.00;2406.40;;;;;;4958775;28;20023;-79
2021/08/25 12:00:40;;;;;;;2.58;1.38;;;538.00;2406.40;;;;;;4974257;28;20074;-83
2021/08/25 12:03:07;;;;;;;3.42;1.75;;;538.00;2406.40;;;;;;4974529;28;20424;-80
2021/08/25 12:05:38;;;;;;;3.53;1.90;;;538.00;2406.40;;;;;;5007858;28;20177;-78
2021/08/25 12:08:06;;;;;;;1.77;1.52;;;538.20;2406.40;;;;;;5055236;28;20452;-80
2021/08/25 12:10:33;;;;;;;4.65;2.53;;;538.30;2406.40;;;;;;5055104;28;20025;-78
2021/08/25 12:12:59;;;;;;;7.72;3.00;;;538.40;2406.40;;;;;;5037036;28;20021;-76
2021/08/25 12:15:49;;;;;;;4.88;3.53;;;538.40;2406.40;;;;;;5055005;28;20021;-79